Time;durP1;ratioP1;P1;durP2;ratioP2;P2;SDS_P1;SDS_P2;PMS_P1;PMS_P2;Temp;Humidity;BMP_temperature;BMP_pressure;BME280_temperature;BME280_humidity;BME280_pressure;Samples;Min_cycle;Max_cycle;Signal;HPM_P1;HPM_P2
2021/08/17 00:00:29;;;;;;;4.60;1.60;;;20.10;99.90;;;;;;5092152;28;20262;-75
2021/08/17 00:02:57;;;;;;;3.35;2.50;;;20.10;99.90;;;;;;5091911;28;20209;-75
2021/08/17 00:05:24;;;;;;;3.50;2.20;;;20.00;99.90;;;;;;5092191;28;20580;-75
2021/08/17 00:07:51;;;;;;;4.60;2.30;;;20.10;99.90;;;;;;5091857;28;20205;-75
2021/08/17 00:10:18;;;;;;;6.60;2.15;;;19.90;99.90;;;;;;5091786;28;20230;-77
2021/08/17 00:12:45;;;;;;;6.28;2.25;;;19.90;99.90;;;;;;5092488;28;20205;-77
2021/08/17 00:15:12;;;;;;;5.75;2.28;;;19.80;99.90;;;;;;5091713;28;20284;-75
2021/08/17 00:17:40;;;;;;;7.95;2.20;;;19.80;99.90;;;;;;5091921;28;20749;-76
2021/08/17 00:20:09;;;;;;;5.75;2.42;;;19.70;99.90;;;;;;5091456;28;20758;-75
2021/08/17 00:22:37;;;;;;;4.22;1.77;;;19.80;99.90;;;;;;5091627;28;21027;-75
2021/08/17 00:25:05;;;;;;;5.32;1.98;;;19.70;99.90;;;;;;5090974;28;20722;-75
2021/08/17 00:27:32;;;;;;;4.32;2.08;;;19.80;99.90;;;;;;5092159;28;20252;-76
2021/08/17 00:29:59;;;;;;;5.35;2.35;;;19.80;99.90;;;;;;5090531;28;20221;-76
2021/08/17 00:32:26;;;;;;;5.07;1.77;;;19.80;99.90;;;;;;5091636;28;20251;-76
2021/08/17 00:34:53;;;;;;;4.57;1.95;;;19.60;99.90;;;;;;5091266;28;20296;-74
2021/08/17 00:37:22;;;;;;;5.15;2.22;;;19.60;99.90;;;;;;5091311;28;20202;-75
2021/08/17 00:39:49;;;;;;;3.42;1.92;;;19.50;99.90;;;;;;5091621;28;20271;-75
2021/08/17 00:42:16;;;;;;;5.43;2.63;;;19.40;99.90;;;;;;5091498;28;20210;-76
2021/08/17 00:44:43;;;;;;;3.05;2.30;;;19.40;99.90;;;;;;5091466;28;20733;-75
2021/08/17 00:47:12;;;;;;;4.45;1.98;;;19.40;99.90;;;;;;5091232;28;20205;-76
2021/08/17 00:49:39;;;;;;;6.15;2.45;;;19.30;99.90;;;;;;5091176;28;20212;-76
2021/08/17 00:52:07;;;;;;;3.33;2.03;;;19.40;99.90;;;;;;5091148;28;20283;-76
2021/08/17 00:54:39;;;;;;;5.65;2.75;;;19.30;99.90;;;;;;5091119;28;20201;-76
2021/08/17 00:57:06;;;;;;;4.72;1.48;;;19.30;99.90;;;;;;5090711;28;20201;-75
2021/08/17 00:59:33;;;;;;;3.38;2.10;;;19.30;99.90;;;;;;5090936;28;20685;-76
2021/08/17 01:02:01;;;;;;;3.70;1.75;;;19.30;99.90;;;;;;5090990;28;20267;-76
2021/08/17 01:04:28;;;;;;;2.95;1.80;;;19.20;99.90;;;;;;5091217;28;20213;-76
2021/08/17 01:06:55;;;;;;;4.22;2.17;;;19.30;99.90;;;;;;5090456;28;20205;-75
2021/08/17 01:09:22;;;;;;;3.90;2.22;;;19.30;99.90;;;;;;5091238;28;20231;-76
2021/08/17 01:11:50;;;;;;;5.32;1.92;;;19.30;99.90;;;;;;5090693;28;20225;-77
2021/08/17 01:14:19;;;;;;;2.60;2.30;;;19.40;99.90;;;;;;5090930;28;20255;-74
2021/08/17 01:16:46;;;;;;;4.35;2.08;;;19.20;99.90;;;;;;5091144;28;20205;-75
2021/08/17 01:19:15;;;;;;;3.45;2.10;;;19.10;99.90;;;;;;5090846;28;20202;-76
2021/08/17 01:21:42;;;;;;;2.10;1.67;;;19.10;99.90;;;;;;5090545;28;20206;-75
2021/08/17 01:24:10;;;;;;;4.03;2.70;;;19.10;99.90;;;;;;5090622;28;20856;-76
2021/08/17 01:26:38;;;;;;;3.58;1.65;;;19.10;99.90;;;;;;5091078;28;21149;-76
2021/08/17 01:29:05;;;;;;;4.10;1.98;;;19.00;99.90;;;;;;5090099;28;20201;-75
2021/08/17 01:31:32;;;;;;;3.95;2.10;;;19.00;99.90;;;;;;5090731;28;20278;-77
2021/08/17 01:33:59;;;;;;;4.55;2.03;;;19.00;99.90;;;;;;5089960;28;20258;-76
2021/08/17 01:36:26;;;;;;;3.35;2.17;;;19.00;99.90;;;;;;5090287;28;20205;-75
2021/08/17 01:38:53;;;;;;;4.97;2.20;;;19.00;99.90;;;;;;5090008;28;20270;-76
2021/08/17 01:41:20;;;;;;;2.47;1.80;;;19.00;99.90;;;;;;5090544;28;20221;-76
2021/08/17 01:43:49;;;;;;;5.03;1.98;;;19.00;99.90;;;;;;5090356;28;20271;-74
2021/08/17 01:46:17;;;;;;;5.32;2.45;;;19.00;99.90;;;;;;5090450;28;20665;-75
2021/08/17 01:48:44;;;;;;;6.57;2.08;;;19.00;99.90;;;;;;5090890;28;20258;-76
2021/08/17 01:51:12;;;;;;;3.78;2.13;;;18.90;99.90;;;;;;5089744;28;20278;-76
2021/08/17 01:53:39;;;;;;;1.77;1.55;;;18.90;99.90;;;;;;5090451;28;20209;-75
2021/08/17 01:56:08;;;;;;;4.65;2.28;;;18.80;99.90;;;;;;5089831;28;20283;-75
2021/08/17 01:58:36;;;;;;;6.60;2.63;;;18.70;99.90;;;;;;5090529;28;20614;-77
2021/08/17 02:01:05;;;;;;;3.75;2.10;;;18.70;99.90;;;;;;5089859;28;20665;-75
2021/08/17 02:03:32;;;;;;;4.25;2.45;;;18.70;99.90;;;;;;5090089;28;20206;-76
2021/08/17 02:05:59;;;;;;;3.88;2.05;;;18.70;99.90;;;;;;5089931;28;20221;-76
2021/08/17 02:08:26;;;;;;;4.15;1.77;;;18.70;99.90;;;;;;5090156;28;20232;-76
2021/08/17 02:10:53;;;;;;;2.72;1.55;;;18.70;99.90;;;;;;5089921;28;20327;-77
2021/08/17 02:13:20;;;;;;;5.05;2.15;;;18.70;99.90;;;;;;5090022;28;20205;-76
2021/08/17 02:15:49;;;;;;;2.50;2.08;;;18.70;99.90;;;;;;5088774;28;20210;-75
2021/08/17 02:18:19;;;;;;;2.67;1.73;;;18.60;99.90;;;;;;5090742;28;20289;-76
2021/08/17 02:20:47;;;;;;;4.03;1.90;;;18.70;99.90;;;;;;5090424;28;20201;-75
2021/08/17 02:23:14;;;;;;;6.57;2.38;;;18.70;99.90;;;;;;5090160;28;20205;-75
2021/08/17 02:25:41;;;;;;;10.43;2.53;;;18.70;99.90;;;;;;5089737;28;20265;-75
2021/08/17 02:28:08;;;;;;;3.30;2.63;;;18.70;99.90;;;;;;5090139;28;20613;-75
2021/08/17 02:30:35;;;;;;;4.70;2.28;;;18.80;99.90;;;;;;5090016;28;20661;-76
2021/08/17 02:33:02;;;;;;;3.67;1.95;;;18.80;99.90;;;;;;5089140;28;20665;-76
2021/08/17 02:35:30;;;;;;;4.10;2.20;;;18.80;99.90;;;;;;5090009;28;20276;-75
2021/08/17 02:37:57;;;;;;;3.88;2.20;;;18.80;99.90;;;;;;5089759;28;20276;-75
2021/08/17 02:40:24;;;;;;;4.90;2.95;;;18.70;99.90;;;;;;5090017;28;20645;-74
2021/08/17 02:42:51;;;;;;;2.83;2.00;;;18.70;99.90;;;;;;5089444;28;20279;-75
2021/08/17 02:45:18;;;;;;;4.43;2.05;;;18.80;99.90;;;;;;5089968;28;20673;-75
2021/08/17 02:47:45;;;;;;;5.38;2.25;;;18.80;99.90;;;;;;5090215;28;20205;-73
2021/08/17 02:50:12;;;;;;;3.22;1.75;;;18.60;99.90;;;;;;5090122;28;20247;-76
2021/08/17 02:52:41;;;;;;;6.55;2.63;;;18.60;99.90;;;;;;5089855;28;20720;-75
2021/08/17 02:55:10;;;;;;;2.00;1.63;;;18.60;99.90;;;;;;5092505;28;20262;-76
2021/08/17 02:57:37;;;;;;;2.88;1.88;;;18.50;99.90;;;;;;5093897;28;20568;-75
2021/08/17 03:00:06;;;;;;;3.47;1.88;;;18.60;99.90;;;;;;5092923;28;20209;-75
2021/08/17 03:02:32;;;;;;;4.47;2.00;;;18.60;99.90;;;;;;5093145;28;20209;-75
2021/08/17 03:04:59;;;;;;;2.97;1.65;;;18.60;99.90;;;;;;5093015;28;20243;-75
2021/08/17 03:07:26;;;;;;;6.60;2.22;;;18.50;99.90;;;;;;5093310;28;20310;-75
2021/08/17 03:09:55;;;;;;;7.43;2.13;;;18.50;99.90;;;;;;5093262;28;20233;-75
2021/08/17 03:12:22;;;;;;;3.70;2.15;;;18.50;99.90;;;;;;5079403;28;20225;-75
2021/08/17 03:14:49;;;;;;;4.00;2.42;;;18.60;99.90;;;;;;5093433;28;20205;-74
2021/08/17 03:17:16;;;;;;;3.92;2.15;;;18.60;99.90;;;;;;5093154;28;20197;-76
2021/08/17 03:19:43;;;;;;;3.45;2.30;;;18.50;99.90;;;;;;5093960;28;20594;-75
2021/08/17 03:22:10;;;;;;;2.47;1.80;;;18.40;99.90;;;;;;5092289;28;20210;-75
2021/08/17 03:24:37;;;;;;;4.90;2.03;;;18.30;99.90;;;;;;5093021;28;20209;-76
2021/08/17 03:27:05;;;;;;;2.92;2.20;;;18.40;99.90;;;;;;5092670;28;20210;-75
2021/08/17 03:29:32;;;;;;;3.80;1.95;;;18.30;99.90;;;;;;5093001;28;20210;-75
2021/08/17 03:31:59;;;;;;;6.50;2.47;;;18.10;99.90;;;;;;5092552;28;20233;-75
2021/08/17 03:34:26;;;;;;;2.05;1.40;;;18.00;99.90;;;;;;5092658;28;20205;-75
2021/08/17 03:36:53;;;;;;;7.53;2.38;;;18.00;99.90;;;;;;5092635;28;20214;-76
2021/08/17 03:39:20;;;;;;;4.72;2.03;;;18.00;99.90;;;;;;5092708;28;20212;-76
2021/08/17 03:41:47;;;;;;;3.90;2.70;;;18.10;99.90;;;;;;5093304;28;20263;-75
2021/08/17 03:44:15;;;;;;;6.55;2.47;;;18.00;99.90;;;;;;5092711;28;20218;-74
2021/08/17 03:46:43;;;;;;;4.90;2.70;;;17.90;99.90;;;;;;5092721;28;20209;-75
2021/08/17 03:49:10;;;;;;;3.17;2.05;;;17.80;99.90;;;;;;5091798;28;20255;-75
2021/08/17 03:51:37;;;;;;;2.78;2.03;;;17.70;99.90;;;;;;5092858;28;20229;-75
2021/08/17 03:54:04;;;;;;;4.85;1.88;;;17.60;99.90;;;;;;5092272;28;20264;-75
2021/08/17 03:56:31;;;;;;;4.75;2.38;;;17.60;99.90;;;;;;5092292;28;20206;-75
2021/08/17 03:58:58;;;;;;;5.05;2.25;;;17.60;99.90;;;;;;5092030;28;20206;-75
2021/08/17 04:01:26;;;;;;;3.67;2.10;;;17.60;99.90;;;;;;5092328;28;20208;-75
2021/08/17 04:03:53;;;;;;;4.40;2.53;;;17.50;99.90;;;;;;5091826;28;20205;-75
2021/08/17 04:06:20;;;;;;;6.20;2.58;;;17.40;99.90;;;;;;5092148;28;20206;-75
2021/08/17 04:08:48;;;;;;;6.32;2.55;;;17.40;99.90;;;;;;5092582;28;20201;-75
2021/08/17 04:11:15;;;;;;;3.33;1.98;;;17.40;99.90;;;;;;5092639;28;20233;-75
2021/08/17 04:13:42;;;;;;;4.25;2.70;;;17.30;99.90;;;;;;5078105;28;20210;-75
2021/08/17 04:16:08;;;;;;;4.10;2.22;;;17.20;99.90;;;;;;5091297;28;20647;-75
2021/08/17 04:18:37;;;;;;;5.45;2.47;;;17.30;99.90;;;;;;5091998;28;20658;-75
2021/08/17 04:21:04;;;;;;;4.85;2.63;;;17.30;99.90;;;;;;5091851;28;20213;-75
2021/08/17 04:23:31;;;;;;;4.15;1.85;;;17.30;99.90;;;;;;5091867;28;20205;-75
2021/08/17 04:25:59;;;;;;;6.35;2.10;;;17.20;99.90;;;;;;5091515;28;20243;-75
2021/08/17 04:28:27;;;;;;;5.63;2.67;;;17.10;99.90;;;;;;5091835;28;20206;-74
2021/08/17 04:30:54;;;;;;;2.20;1.90;;;17.20;99.90;;;;;;5090953;28;20212;-75
2021/08/17 04:33:21;;;;;;;3.28;2.53;;;17.20;99.90;;;;;;5091895;28;20212;-75
2021/08/17 04:35:49;;;;;;;4.90;2.38;;;17.20;99.90;;;;;;5091576;28;20205;-74
2021/08/17 04:38:16;;;;;;;4.10;2.20;;;17.10;99.90;;;;;;5092016;28;20209;-76
2021/08/17 04:40:43;;;;;;;3.85;2.13;;;17.00;99.90;;;;;;5091935;28;20259;-75
2021/08/17 04:43:11;;;;;;;8.88;2.47;;;17.00;99.90;;;;;;5090980;28;20266;-75
2021/08/17 04:45:38;;;;;;;3.25;1.88;;;17.00;99.90;;;;;;5091165;28;20665;-75
2021/08/17 04:48:05;;;;;;;6.00;2.88;;;17.00;99.90;;;;;;5090862;28;20251;-75
2021/08/17 04:50:33;;;;;;;5.82;2.65;;;17.10;99.90;;;;;;5091613;28;20209;-74
2021/08/17 04:53:01;;;;;;;4.07;2.35;;;17.10;99.90;;;;;;5090812;28;20309;-74
2021/08/17 04:55:28;;;;;;;6.85;2.50;;;17.00;99.90;;;;;;5090948;28;20205;-73
2021/08/17 04:57:57;;;;;;;4.65;2.10;;;17.00;99.90;;;;;;5090525;28;20209;-74
2021/08/17 05:00:26;;;;;;;4.88;2.75;;;17.10;99.90;;;;;;5091162;28;20205;-74
2021/08/17 05:02:53;;;;;;;5.70;2.65;;;17.20;99.90;;;;;;5090702;28;20209;-74
2021/08/17 05:05:20;;;;;;;6.35;2.30;;;17.30;99.90;;;;;;5091273;28;20254;-75
2021/08/17 05:07:48;;;;;;;5.78;2.70;;;17.30;99.90;;;;;;5091315;28;20274;-74
2021/08/17 05:10:19;;;;;;;8.80;2.80;;;17.30;99.90;;;;;;5091058;28;20207;-75
2021/08/17 05:12:47;;;;;;;5.93;2.95;;;17.30;99.90;;;;;;5090893;28;20704;-74
2021/08/17 05:15:14;;;;;;;7.10;2.85;;;17.30;99.90;;;;;;5091011;28;20237;-75
2021/08/17 05:17:41;;;;;;;6.90;3.38;;;17.20;99.90;;;;;;5090600;28;20206;-73
2021/08/17 05:20:11;;;;;;;6.18;3.97;;;17.20;99.90;;;;;;5090420;28;20646;-74
2021/08/17 05:22:38;;;;;;;4.85;2.95;;;17.30;99.90;;;;;;5090614;28;20655;-74
2021/08/17 05:25:05;;;;;;;4.95;3.22;;;17.20;99.90;;;;;;5090689;28;20217;-73
2021/08/17 05:27:34;;;;;;;6.65;3.90;;;17.20;99.90;;;;;;5090377;28;20664;-74
2021/08/17 05:30:01;;;;;;;9.50;3.20;;;17.20;99.90;;;;;;5090558;28;20205;-74
2021/08/17 05:32:28;;;;;;;5.05;2.92;;;17.20;99.90;;;;;;5090732;28;20232;-74
2021/08/17 05:34:55;;;;;;;6.07;3.70;;;17.20;99.90;;;;;;5090415;28;20202;-74
2021/08/17 05:37:21;;;;;;;4.90;2.92;;;17.30;99.90;;;;;;5090283;28;20205;-74
2021/08/17 05:39:48;;;;;;;6.57;3.00;;;17.30;99.90;;;;;;5090744;28;20620;-74
2021/08/17 05:42:15;;;;;;;4.07;2.88;;;17.30;99.90;;;;;;5090807;28;20213;-75
2021/08/17 05:44:45;;;;;;;8.70;2.72;;;17.40;99.90;;;;;;5090847;28;20210;-74
2021/08/17 05:47:13;;;;;;;6.40;3.08;;;17.30;99.90;;;;;;5090374;28;20205;-74
2021/08/17 05:49:40;;;;;;;4.13;2.08;;;17.30;99.90;;;;;;5090223;28;20209;-74
2021/08/17 05:52:09;;;;;;;3.60;2.53;;;17.30;99.90;;;;;;5089960;28;20286;-74
2021/08/17 05:54:36;;;;;;;6.22;3.08;;;17.20;99.90;;;;;;5090484;28;20266;-75
2021/08/17 05:57:04;;;;;;;6.32;2.50;;;17.20;99.90;;;;;;5089891;28;20209;-75
2021/08/17 05:59:31;;;;;;;3.33;3.03;;;17.20;99.90;;;;;;5090451;28;20258;-75
2021/08/17 06:02:01;;;;;;;3.08;2.13;;;17.30;99.90;;;;;;5090170;28;20206;-74
2021/08/17 06:04:29;;;;;;;3.20;2.60;;;17.30;99.90;;;;;;5090079;28;20209;-74
2021/08/17 06:06:56;;;;;;;5.60;3.30;;;17.40;99.90;;;;;;5090406;28;20206;-74
2021/08/17 06:09:23;;;;;;;4.05;2.20;;;17.40;99.90;;;;;;5090461;28;20629;-74
2021/08/17 06:11:54;;;;;;;5.10;2.75;;;17.40;99.90;;;;;;5089811;28;20428;-73
2021/08/17 06:14:21;;;;;;;5.25;2.45;;;17.50;99.90;;;;;;5090240;28;20232;-74
2021/08/17 06:16:48;;;;;;;3.15;2.33;;;17.60;99.90;;;;;;5090306;28;20622;-74
2021/08/17 06:19:16;;;;;;;8.60;3.03;;;17.50;99.90;;;;;;5090472;28;20201;-74
2021/08/17 06:21:43;;;;;;;5.55;3.42;;;17.50;99.90;;;;;;5090462;28;20255;-74
2021/08/17 06:24:11;;;;;;;3.95;2.00;;;17.40;99.90;;;;;;5089838;28;20262;-75
2021/08/17 06:26:38;;;;;;;6.70;3.20;;;17.40;99.90;;;;;;5090214;28;20263;-73
2021/08/17 06:29:05;;;;;;;4.05;2.78;;;17.60;99.90;;;;;;5091378;28;20677;-74
2021/08/17 06:31:32;;;;;;;8.30;3.95;;;17.70;99.90;;;;;;5094153;28;20584;-73
2021/08/17 06:34:00;;;;;;;7.95;2.08;;;17.70;99.90;;;;;;5093283;28;20583;-74
2021/08/17 06:36:30;;;;;;;2.53;2.30;;;17.70;99.90;;;;;;5094258;28;20212;-74
2021/08/17 06:38:57;;;;;;;5.22;2.65;;;17.80;99.90;;;;;;5093545;28;20226;-75
2021/08/17 06:41:24;;;;;;;5.57;2.83;;;17.80;99.90;;;;;;5079702;28;20205;-73
2021/08/17 06:43:51;;;;;;;3.58;2.40;;;17.80;99.90;;;;;;5097533;28;20223;-74
2021/08/17 06:46:18;;;;;;;4.75;2.33;;;17.80;99.90;;;;;;5095220;28;20201;-74
2021/08/17 06:48:45;;;;;;;5.38;2.60;;;17.90;99.90;;;;;;5094075;28;20259;-73
2021/08/17 06:51:13;;;;;;;4.60;2.22;;;17.90;99.90;;;;;;5092938;28;20259;-74
2021/08/17 06:53:41;;;;;;;6.38;2.67;;;18.10;99.90;;;;;;5093651;28;20236;-74
2021/08/17 06:56:09;;;;;;;8.18;2.88;;;18.00;99.90;;;;;;5092568;28;20255;-74
2021/08/17 06:58:36;;;;;;;7.63;3.10;;;18.10;99.90;;;;;;5093338;28;20262;-74
2021/08/17 07:01:03;;;;;;;4.78;2.45;;;18.20;99.90;;;;;;5092899;28;20213;-73
2021/08/17 07:03:31;;;;;;;9.85;3.08;;;18.20;99.90;;;;;;5082667;28;20254;-74
2021/08/17 07:05:58;;;;;;;6.32;3.15;;;18.30;99.90;;;;;;5094361;28;20689;-74
2021/08/17 07:08:26;;;;;;;10.45;3.67;;;18.40;99.90;;;;;;5093472;28;20250;-74
2021/08/17 07:10:54;;;;;;;4.95;2.33;;;18.50;99.90;;;;;;5096821;28;20205;-74
2021/08/17 07:13:21;;;;;;;5.63;3.08;;;18.50;99.90;;;;;;5092294;28;20671;-73
2021/08/17 07:15:48;;;;;;;9.10;3.03;;;18.60;99.90;;;;;;5097858;28;20271;-74
2021/08/17 07:18:15;;;;;;;6.35;2.75;;;18.80;99.90;;;;;;5093025;28;20619;-74
2021/08/17 07:20:43;;;;;;;9.55;3.38;;;18.60;99.90;;;;;;5093394;28;20292;-74
2021/08/17 07:23:10;;;;;;;5.93;3.22;;;18.70;99.90;;;;;;5095481;28;20201;-75
2021/08/17 07:25:37;;;;;;;8.27;2.90;;;18.90;99.90;;;;;;5111283;28;20662;-74
2021/08/17 07:28:06;;;;;;;3.95;3.17;;;19.00;99.90;;;;;;5111856;28;20286;-73
2021/08/17 07:30:33;;;;;;;5.05;3.03;;;18.80;99.90;;;;;;5111935;28;20668;-74
2021/08/17 07:33:00;;;;;;;6.18;3.50;;;18.80;99.90;;;;;;5092334;28;20712;-75
2021/08/17 07:35:27;;;;;;;8.32;2.70;;;18.80;99.90;;;;;;5092563;28;20270;-74
2021/08/17 07:37:55;;;;;;;7.88;2.25;;;18.80;99.90;;;;;;5091760;28;20258;-75
2021/08/17 07:40:22;;;;;;;4.95;2.67;;;19.00;99.90;;;;;;5094405;28;20292;-74
2021/08/17 07:42:49;;;;;;;4.88;3.25;;;19.10;99.90;;;;;;5090015;28;20217;-74
2021/08/17 07:45:19;;;;;;;5.75;2.88;;;19.20;99.90;;;;;;5095913;28;20274;-74
2021/08/17 07:47:47;;;;;;;4.97;3.15;;;19.30;99.90;;;;;;5092512;28;20198;-73
2021/08/17 07:50:15;;;;;;;13.68;5.45;;;19.50;99.90;;;;;;5092932;28;20208;-73
2021/08/17 07:52:43;;;;;;;11.25;3.40;;;19.50;99.90;;;;;;5092185;28;20612;-74
2021/08/17 07:55:12;;;;;;;6.20;2.60;;;19.50;99.90;;;;;;5091944;28;20209;-75
2021/08/17 07:57:40;;;;;;;6.45;2.55;;;19.70;99.90;;;;;;5092169;28;20205;-76
2021/08/17 08:00:10;;;;;;;7.78;3.20;;;19.80;99.90;;;;;;5082340;28;20738;-74
2021/08/17 08:02:39;;;;;;;9.63;2.90;;;19.90;99.90;;;;;;5092011;28;20263;-73
2021/08/17 08:05:07;;;;;;;10.82;2.58;;;19.70;99.90;;;;;;5091780;28;20206;-73
2021/08/17 08:07:34;;;;;;;4.63;2.40;;;19.80;99.90;;;;;;5091908;28;20209;-74
2021/08/17 08:10:01;;;;;;;5.85;2.85;;;20.10;99.90;;;;;;5086489;28;20258;-74
2021/08/17 08:12:28;;;;;;;4.05;2.42;;;20.50;99.90;;;;;;5100800;28;20225;-73
2021/08/17 08:14:55;;;;;;;9.60;3.17;;;20.50;99.90;;;;;;5109952;28;20209;-74
2021/08/17 08:17:22;;;;;;;6.88;2.80;;;20.50;99.90;;;;;;5111710;28;20310;-74
2021/08/17 08:19:51;;;;;;;6.22;3.00;;;20.60;99.90;;;;;;5108252;28;20632;-73
2021/08/17 08:22:18;;;;;;;8.10;2.63;;;20.50;99.90;;;;;;5091440;28;20209;-74
2021/08/17 08:24:45;;;;;;;7.72;2.90;;;20.60;99.90;;;;;;5098292;28;20559;-74
2021/08/17 08:27:14;;;;;;;5.20;2.80;;;20.70;99.90;;;;;;5110214;28;20197;-74
2021/08/17 08:29:43;;;;;;;5.57;2.75;;;20.70;99.90;;;;;;5103837;28;20213;-74
2021/08/17 08:32:10;;;;;;;6.35;2.70;;;20.70;99.90;;;;;;5105213;28;20204;-75
2021/08/17 08:34:37;;;;;;;9.35;3.45;;;20.90;99.90;;;;;;5109295;28;20729;-74
2021/08/17 08:37:06;;;;;;;5.30;2.13;;;21.10;99.90;;;;;;5110209;28;20254;-74
2021/08/17 08:39:33;;;;;;;7.68;4.10;;;21.40;99.90;;;;;;5092556;28;20217;-75
2021/08/17 08:42:00;;;;;;;6.13;2.92;;;21.40;99.90;;;;;;5091131;28;20695;-75
2021/08/17 08:44:28;;;;;;;4.80;2.25;;;21.30;99.90;;;;;;5091648;28;20262;-76
2021/08/17 08:46:55;;;;;;;8.95;2.75;;;21.60;99.90;;;;;;5090503;28;20259;-74
2021/08/17 08:49:23;;;;;;;2.92;1.90;;;21.40;99.90;;;;;;5091092;28;20255;-75
2021/08/17 08:51:50;;;;;;;4.68;2.63;;;21.70;99.90;;;;;;5090277;28;20255;-73
2021/08/17 08:54:18;;;;;;;9.75;3.20;;;22.10;99.90;;;;;;5091339;28;20254;-76
2021/08/17 08:56:46;;;;;;;6.05;2.40;;;22.00;99.90;;;;;;5091673;28;20263;-75
2021/08/17 08:59:13;;;;;;;4.32;2.40;;;22.30;99.90;;;;;;5091174;28;20285;-75
2021/08/17 09:01:40;;;;;;;7.05;2.90;;;22.00;99.90;;;;;;5091048;28;20201;-75
2021/08/17 09:04:07;;;;;;;7.45;2.70;;;21.80;99.90;;;;;;5090668;28;20210;-76
2021/08/17 09:06:35;;;;;;;6.63;2.47;;;21.90;99.90;;;;;;5090813;28;20205;-75
2021/08/17 09:09:10;;;;;;;4.25;2.38;;;22.00;99.90;;;;;;5090947;28;20201;-74
2021/08/17 09:11:40;;;;;;;5.25;2.80;;;22.40;99.90;;;;;;5090608;28;21106;-75
2021/08/17 09:14:19;;;;;;;4.53;1.90;;;22.30;99.90;;;;;;5090608;28;20240;-75
2021/08/17 09:16:46;;;;;;;5.07;3.03;;;22.20;99.90;;;;;;5090830;28;20684;-75
2021/08/17 09:19:27;;;;;;;5.78;2.30;;;22.20;99.90;;;;;;5090809;28;20262;-75
2021/08/17 09:21:55;;;;;;;4.28;2.40;;;22.80;99.90;;;;;;5090137;28;20248;-75
2021/08/17 09:24:26;;;;;;;3.53;2.05;;;23.50;99.90;;;;;;5076789;28;20206;-76
2021/08/17 09:26:57;;;;;;;5.18;2.25;;;22.80;99.90;;;;;;5090708;28;20262;-75
2021/08/17 09:29:27;;;;;;;3.00;2.17;;;22.30;99.90;;;;;;5090687;28;20209;-76
2021/08/17 09:31:56;;;;;;;6.30;2.42;;;22.50;99.90;;;;;;5090339;28;20676;-76
2021/08/17 09:34:30;;;;;;;3.85;1.98;;;23.90;99.90;;;;;;5090435;28;20389;-76
2021/08/17 09:37:00;;;;;;;6.65;2.85;;;24.40;99.90;;;;;;5090033;28;20753;-76
2021/08/17 09:39:32;;;;;;;3.13;2.20;;;26.20;99.90;;;;;;5090443;28;20633;-75
2021/08/17 09:42:21;;;;;;;8.05;2.80;;;26.60;99.90;;;;;;5090254;28;20672;-74
2021/08/17 09:45:17;;;;;;;4.93;2.38;;;24.30;99.90;;;;;;5090541;28;20587;-76
2021/08/17 09:47:45;;;;;;;7.82;2.40;;;22.90;99.90;;;;;;5054677;28;20213;-75
2021/08/17 09:50:27;;;;;;;4.72;2.17;;;22.40;99.90;;;;;;5090402;28;20711;-74
2021/08/17 09:53:11;;;;;;;5.22;3.10;;;22.90;99.90;;;;;;5090221;28;20202;-75
2021/08/17 09:55:43;;;;;;;3.55;2.30;;;23.10;99.90;;;;;;5090364;28;20734;-76
2021/08/17 09:58:23;;;;;;;3.53;1.98;;;23.30;99.90;;;;;;5089991;28;20251;-75
2021/08/17 10:00:53;;;;;;;4.75;1.92;;;23.40;99.90;;;;;;5090098;28;20201;-74
2021/08/17 10:03:21;;;;;;;3.47;1.92;;;23.50;99.90;;;;;;5092211;28;20637;-73
2021/08/17 10:05:48;;;;;;;2.60;1.98;;;23.40;99.90;;;;;;5094783;28;20270;-75
2021/08/17 10:08:17;;;;;;;5.43;2.40;;;23.30;99.90;;;;;;5094444;28;20201;-75
2021/08/17 10:10:46;;;;;;;3.03;1.85;;;23.50;99.90;;;;;;5094852;28;20733;-74
2021/08/17 10:13:15;;;;;;;3.63;2.10;;;23.30;99.90;;;;;;5094277;28;20256;-75
2021/08/17 10:15:45;;;;;;;4.07;2.10;;;23.90;99.90;;;;;;5094954;28;20621;-74
2021/08/17 10:18:14;;;;;;;8.05;3.00;;;24.20;99.90;;;;;;5093481;28;20231;-75
2021/08/17 10:20:43;;;;;;;5.00;2.28;;;24.30;99.90;;;;;;5094289;28;20726;-75
2021/08/17 10:23:15;;;;;;;6.35;2.72;;;25.00;99.90;;;;;;5094032;28;20213;-76
2021/08/17 10:25:47;;;;;;;5.03;2.85;;;25.40;99.90;;;;;;5094202;28;20248;-75
2021/08/17 10:28:39;;;;;;;4.85;2.22;;;25.40;99.90;;;;;;5094393;28;20206;-75
2021/08/17 10:31:32;;;;;;;4.53;2.17;;;23.50;99.90;;;;;;5078622;28;20209;-78
2021/08/17 10:34:08;;;;;;;6.63;3.42;;;22.90;99.90;;;;;;5078662;28;20268;-76
2021/08/17 10:36:37;;;;;;;5.15;2.22;;;22.70;99.90;;;;;;5093859;28;20589;-76
2021/08/17 10:39:06;;;;;;;5.00;2.50;;;23.00;99.90;;;;;;5093247;28;20622;-73
2021/08/17 10:41:38;;;;;;;8.63;3.05;;;23.20;99.90;;;;;;5093980;28;20259;-74
2021/08/17 10:44:20;;;;;;;6.65;2.80;;;23.70;99.90;;;;;;5093066;28;20279;-75
2021/08/17 10:47:11;;;;;;;3.88;2.47;;;23.80;99.90;;;;;;5093656;28;20628;-73
2021/08/17 10:49:52;;;;;;;4.95;2.83;;;24.00;99.90;;;;;;5093826;28;20209;-76
2021/08/17 10:52:36;;;;;;;4.55;2.83;;;24.60;99.90;;;;;;5093593;28;20685;-74
2021/08/17 10:55:24;;;;;;;3.70;2.13;;;25.20;99.90;;;;;;5093279;28;20229;-76
2021/08/17 10:57:56;;;;;;;5.47;2.67;;;25.30;99.90;;;;;;5093313;28;20254;-75
2021/08/17 11:00:49;;;;;;;5.25;2.60;;;24.00;99.90;;;;;;5093348;28;20650;-74
2021/08/17 11:03:43;;;;;;;6.72;2.80;;;23.20;99.90;;;;;;5093839;28;20255;-74
2021/08/17 11:06:10;;;;;;;4.43;2.45;;;23.10;99.90;;;;;;5093203;28;20216;-74
2021/08/17 11:08:39;;;;;;;6.50;2.85;;;23.50;99.90;;;;;;5079348;28;20294;-75
2021/08/17 11:11:19;;;;;;;3.78;2.13;;;24.10;99.90;;;;;;5092679;28;20613;-74
2021/08/17 11:14:09;;;;;;;6.30;3.33;;;24.30;99.90;;;;;;5093153;28;20298;-72
2021/08/17 11:16:43;;;;;;;5.80;3.17;;;23.90;99.90;;;;;;5093048;28;20254;-76
2021/08/17 11:19:12;;;;;;;5.80;3.08;;;23.40;99.90;;;;;;5092879;28;20274;-75
2021/08/17 11:21:41;;;;;;;6.65;2.08;;;23.00;99.90;;;;;;5092912;28;20288;-76
2021/08/17 11:24:27;;;;;;;6.32;3.05;;;23.40;99.90;;;;;;5092679;28;20209;-75
2021/08/17 11:26:59;;;;;;;3.95;2.85;;;24.30;99.90;;;;;;5092785;28;20209;-74
2021/08/17 11:29:41;;;;;;;6.10;2.72;;;24.60;99.90;;;;;;5092866;28;20209;-74
2021/08/17 11:32:10;;;;;;;5.57;2.53;;;24.90;99.90;;;;;;5092781;28;20213;-73
2021/08/17 11:34:40;;;;;;;6.97;3.17;;;24.80;99.90;;;;;;5093154;28;20245;-76
2021/08/17 11:37:09;;;;;;;3.20;2.63;;;24.10;99.90;;;;;;5092848;28;20763;-75
2021/08/17 11:39:41;;;;;;;4.78;2.83;;;23.80;99.90;;;;;;5092872;28;20209;-75
2021/08/17 11:42:16;;;;;;;5.25;2.75;;;23.60;99.90;;;;;;5092240;28;20582;-74
2021/08/17 11:44:44;;;;;;;5.03;2.90;;;23.50;99.90;;;;;;5093033;28;20266;-77
2021/08/17 11:47:13;;;;;;;6.57;2.65;;;23.20;99.90;;;;;;5092541;28;20205;-74
2021/08/17 11:49:42;;;;;;;7.88;3.22;;;23.00;99.90;;;;;;5092395;28;20197;-76
2021/08/17 11:52:15;;;;;;;6.43;3.03;;;23.40;99.90;;;;;;5092545;28;20209;-78
2021/08/17 11:54:52;;;;;;;3.95;2.15;;;23.80;99.90;;;;;;5092441;28;20765;-75
2021/08/17 11:57:22;;;;;;;3.70;3.00;;;24.00;99.90;;;;;;5092363;28;20209;-74
2021/08/17 11:59:51;;;;;;;5.78;3.28;;;24.10;99.90;;;;;;5091685;28;20259;-76
2021/08/17 12:02:29;;;;;;;4.50;2.75;;;24.30;99.90;;;;;;5092360;28;20259;-75
2021/08/17 12:04:59;;;;;;;4.30;2.60;;;24.10;99.90;;;;;;5091923;28;20208;-75
2021/08/17 12:07:28;;;;;;;4.95;2.70;;;23.80;99.90;;;;;;5092588;28;20202;-74
2021/08/17 12:09:56;;;;;;;5.43;3.75;;;24.00;99.90;;;;;;5091735;28;20240;-73
2021/08/17 12:13:08;;;;;;;4.43;3.08;;;24.30;99.90;;;;;;5092526;28;20251;-74
2021/08/17 12:15:39;;;;;;;4.72;2.95;;;24.60;99.90;;;;;;5029743;28;20224;-73
2021/08/17 12:18:09;;;;;;;4.80;3.25;;;25.30;99.90;;;;;;5079330;28;20206;-72
2021/08/17 12:20:40;;;;;;;5.70;3.72;;;25.30;99.90;;;;;;5092341;28;20202;-74
2021/08/17 12:23:20;;;;;;;5.70;3.28;;;24.30;99.90;;;;;;5091369;28;20209;-76
2021/08/17 12:25:48;;;;;;;7.38;3.10;;;23.80;99.90;;;;;;5090671;28;20209;-73
2021/08/17 12:28:26;;;;;;;7.05;3.60;;;24.20;99.90;;;;;;5092005;28;20248;-76
2021/08/17 12:31:07;;;;;;;6.40;3.28;;;24.70;99.90;;;;;;5091547;28;20197;-74
2021/08/17 12:33:34;;;;;;;4.55;3.33;;;25.00;99.90;;;;;;5091729;28;20210;-76
2021/08/17 12:36:02;;;;;;;5.22;3.00;;;24.60;99.90;;;;;;5091178;28;20263;-75
2021/08/17 12:38:37;;;;;;;6.10;3.83;;;24.60;99.90;;;;;;5091507;28;20677;-72
2021/08/17 12:41:04;;;;;;;7.22;3.17;;;24.40;99.90;;;;;;5091295;28;20269;-75
2021/08/17 12:43:38;;;;;;;6.63;3.22;;;24.30;99.90;;;;;;5091331;28;20217;-75
2021/08/17 12:46:13;;;;;;;7.03;3.95;;;24.60;99.90;;;;;;5091266;28;20217;-73
2021/08/17 12:48:44;;;;;;;6.43;3.10;;;24.30;99.90;;;;;;5091427;28;20676;-79
2021/08/17 12:51:21;;;;;;;3.65;3.25;;;24.10;99.90;;;;;;5090871;28;20297;-72
2021/08/17 12:53:48;;;;;;;6.22;3.35;;;24.00;99.90;;;;;;5091324;28;20236;-78
2021/08/17 12:56:15;;;;;;;5.45;3.35;;;24.10;99.90;;;;;;5091504;28;20209;-74